Terminal Aerodrome Forecast
Issued by NWS Miami, FL

Home | Current Version | Previous Version | Text Only | Print | Product List | Glossary On
Versions: 1 2 3 4 5 6 7 8 9 10 11 12 13 14 15 16 17 18 19 20 21 22 23 24 25
000
FTUS42 KMFL 192335
TAFFLL
TAF
KFLL 192335Z 2000/2106 VRB05KT P6SM FEW050 FEW100
     FM200200 31005KT P6SM SCT050 SCT070 BKN100
     FM201100 02010KT P6SM SCT020 BKN050 BKN070
     FM201400 06012G18KT P6SM BKN050 BKN100
     FM210000 07012KT P6SM VCSH BKN035 BKN050 BKN100=

USA.gov is the U.S. government's official web portal to all federal, state and local government web resources and services.